Hlavní strana
METAR-TAF:

METAR-TAF

Letiště :

Letiště Tallinn

Tallinn, Estonsko

zeměpisná šířka: 59-23N, zeměpisná délka: 024-35E, výška: 44 m

Aktuální stav počasí

Zpráva byla vytvořena před 32 minutami, v 13:20 UTC
Západoseverozápadní vítr 11 kt, proměnlivý mezi západním a severoseverozápadním
Teplota 18°C
Vlhkost vzduchu 45%
Tlak 1030 hPa
Viditelnost 10 km a více
Žádná oblačnost pod 1500 m, nevyskytují se cumulonimby.

METAR: EETN 261320Z 30011KT 280V340 CAVOK 18/06 Q1030 NOSIG

Čas: 16:52 (13:52 UTC)

Předpověď počasí

Zpráva byla vytvořena před 2 hodinami a 22 minutami, v 11:30 UTC
Předpověď platná od 26 v 12 UTC do 27 v 12 UTC
Západoseverozápadní vítr 10 kt
Viditelnost 10 km a více
Žádná oblačnost pod 1500 m, nevyskytují se cumulonimby.
Pravděpodobnost 30% :
Dočasný
od 27 v 00 UTC do 27 v 04 UTC
Viditelnost: 0800 m
Oblačno až skoro zataženo ve výšce 300 ft
chuchvalce mlhy

TAF: EETN 261130Z 2612/2712 30010KT CAVOK PROB30 TEMPO 2700/2704 0800 BCFG BKN003

Stav a předpovědi počasí z více než 4 000 letišť (zprávy METAR a TAF).

Červené a žluté tečky na mapě představují dostupné meteorologické stanice.

Když kurzor umístíte na tečku, zobrazí se název stanice.

Pak kliknutím zobrazíte stav a předpověď počasí.

Chcete-li změnit mapu, kliknutím na zelené tlačítko se znaménkem +mapu přiblížíte, kliknutím na zelené tlačítko se znaménkem – mapu oddálíte a kliknutím na zelené šipky přejdete na sousední mapy.


METAR-TAF: